Ashley, PA

2:25 AM EDT on September 22, 2014 (GMT -0400)
Top of the hill in Nanticoke | Change Station
CLOSE
Current Station
Personal Weather Station
Location: Nanticoke, PA
Elevation: 682 ft
Nearby Weather Stations

Elev 682 ft 41.20 °N, 75.99 °W | Updated 1 minute ago

Partly Cloudy
Partly Cloudy
59.5 °F
Feels Like 59.5 °F
N
1.1
Wind Variable Wind from WNW

Today
High -- | Low -- °F
--% Chance of Precip.
Yesterday
High -- | Low -- °F
Precip. -- in
6:51 AM 7:00 PM
Waning Crescent, 4% visible
Pressure 29.70 in
Visibility 10.0 miles
Clouds Few 3800 ft
Dew Point 52 °F
Humidity 76%
Rainfall 0.00 in
Snow Depth Not available.
UV 0 out of 12
Pollen 2.50 out of 12
Air Quality Not available.
Flu Activity Not available.
METAR KAVP 220554Z AUTO 23004KT 10SM FEW038 16/14 A2973 RMK AO2 SLP058 60020 T01610144 10233 20161 53010

More Conditions Fewer Conditions

Pressure 29.70 in
Visibility 10.0 miles
Clouds Few 3800 ft
Dew Point 52 °F
Humidity 76%
Rainfall 0.00 in
Snow Depth Not available.
UV 0 out of 12
Pollen 2.50 out of 12
Air Quality Not available.
Flu Activity Not available.
METAR KAVP 220554Z AUTO 23004KT 10SM FEW038 16/14 A2973 RMK AO2 SLP058 60020 T01610144 10233 20161 53010

More Conditions Fewer Conditions

10-Day Weather Forecast

Almanac

Astronomy

Sep. 22, 2014 Rise Set
Actual Time 6:51 AM EDT 7:00 PM EDT
Civil Twilight 6:23 AM EDT 7:28 PM EDT
Nautical Twilight 5:51 AM EDT 8:00 PM EDT
Astronomical Twilight 5:18 AM EDT 8:33 PM EDT
Moon 5:17 AM EDT 6:07 PM EDT
Length of Visible Light 13h 04m
Length of Day
12h 09m
Tomorrow will be 2m 44s shorter.
Waning Crescent, 4% of the Moon is Illuminated
Today
Waning Crescent
Sep 24
New
Oct 1
First Quarter
Oct 8
Full
Oct 15
Last Quarter

Today's Extremes

State Highs State Lows

Community

WunderPhotos

Upload Photos

1,755,392 photos uploaded!

Nearby

Snow Depth

Station Depth Elevation
No new snow has been reported.

Earthquake Activity

City Distance Mag. Time & Date
No recent earthquake activity has been reported nearby.
Minimum magnitude displayed is 2.5.

Coastal Water Temperatures

Place Temperature
No Stations Reporting

Nearby Weather Stations